Time;durP1;ratioP1;P1;durP2;ratioP2;P2;SDS_P1;SDS_P2;PMS_P1;PMS_P2;Temp;Humidity;BMP_temperature;BMP_pressure;BME280_temperature;BME280_humidity;BME280_pressure;Samples;Min_cycle;Max_cycle;Signal;HPM_P1;HPM_P2
2023/08/10 00:01:34;;;;;;;4.10;1.80;;;;;;;18.18;100.00;101204.30;107105;1282;59101;-78
2023/08/10 00:04:00;;;;;;;3.70;2.20;;;;;;;18.15;100.00;101204.39;107099;1282;59052;-78
2023/08/10 00:06:25;;;;;;;4.40;2.00;;;;;;;18.11;100.00;101201.89;107111;1283;59078;-79
2023/08/10 00:08:51;;;;;;;4.80;2.00;;;;;;;18.11;100.00;101206.30;107151;1283;59058;-78
2023/08/10 00:11:17;;;;;;;4.20;1.70;;;;;;;18.09;100.00;101206.00;107135;1283;59171;-78
2023/08/10 00:13:43;;;;;;;3.70;1.80;;;;;;;18.03;100.00;101204.13;106726;1286;71818;-78
2023/08/10 00:16:09;;;;;;;2.20;1.60;;;;;;;18.01;100.00;101203.19;107095;1283;60353;-78
2023/08/10 00:18:34;;;;;;;5.20;2.40;;;;;;;18.02;100.00;101203.66;107071;1283;59005;-78
2023/08/10 00:21:01;;;;;;;4.10;2.30;;;;;;;18.00;100.00;101205.05;106941;1283;59162;-78
2023/08/10 00:26:48;;;;;;;3.50;1.90;;;;;;;17.93;100.00;101214.85;107063;1283;72434;-78
2023/08/10 00:29:13;;;;;;;4.50;2.30;;;;;;;17.90;100.00;101214.23;107055;1283;59092;-78
2023/08/10 00:31:39;;;;;;;8.60;2.40;;;;;;;17.89;100.00;101219.48;107133;1282;58960;-78
2023/08/10 00:34:04;;;;;;;5.90;2.10;;;;;;;17.89;100.00;101219.23;107131;1283;59182;-77
2023/08/10 00:39:51;;;;;;;4.20;2.30;;;;;;;17.86;100.00;101216.38;107068;1282;61803;-77
2023/08/10 00:45:39;;;;;;;8.20;2.10;;;;;;;17.84;100.00;101222.83;107088;1283;74238;-78
2023/08/10 00:48:05;;;;;;;2.70;2.00;;;;;;;17.82;100.00;101221.87;107018;1282;59108;-78
2023/08/10 00:50:31;;;;;;;2.90;2.10;;;;;;;17.81;100.00;101223.30;107098;1283;59093;-78
2023/08/10 00:52:56;;;;;;;4.50;2.10;;;;;;;17.80;100.00;101221.14;107040;1283;59033;-78
2023/08/10 00:55:22;;;;;;;3.10;1.80;;;;;;;17.79;100.00;101222.62;106917;1283;59043;-78
2023/08/10 00:57:47;;;;;;;3.20;2.10;;;;;;;17.78;100.00;101224.33;107186;1283;59100;-78
2023/08/10 01:00:14;;;;;;;4.80;2.30;;;;;;;17.75;100.00;101221.06;107096;1282;73429;-78
2023/08/10 01:02:40;;;;;;;5.20;2.20;;;;;;;17.73;100.00;101222.67;107074;1283;59016;-78
2023/08/10 01:05:14;;;;;;;7.60;2.30;;;;;;;17.73;100.00;101221.91;106764;1283;59146;-78
2023/08/10 01:08:07;;;;;;;3.60;2.30;;;;;;;17.70;100.00;101218.34;107104;1283;74270;-78
2023/08/10 01:10:47;;;;;;;3.30;2.00;;;;;;;17.68;100.00;101219.29;107136;1282;73435;-78
2023/08/10 01:13:23;;;;;;;5.40;2.00;;;;;;;17.69;100.00;101224.63;107064;1283;73404;-78
2023/08/10 01:15:53;;;;;;;5.50;2.30;;;;;;;17.68;100.00;101225.79;107102;1282;62776;-78
2023/08/10 01:18:25;;;;;;;6.90;2.00;;;;;;;17.64;100.00;101219.67;107114;1283;59995;-78
2023/08/10 01:20:51;;;;;;;6.50;2.30;;;;;;;17.63;100.00;101221.38;107129;1283;74173;-78
2023/08/10 01:23:37;;;;;;;4.40;2.20;;;;;;;17.61;100.00;101217.70;107158;1283;73336;-78
2023/08/10 01:29:24;;;;;;;3.60;1.90;;;;;;;17.57;100.00;101220.04;107142;1283;61754;-78
2023/08/10 01:35:12;;;;;;;5.20;2.00;;;;;;;17.55;100.00;101213.36;107103;1283;74371;-78
2023/08/10 01:37:37;;;;;;;3.40;2.30;;;;;;;17.53;100.00;101216.98;107181;1282;59095;-78
2023/08/10 01:40:12;;;;;;;6.00;2.20;;;;;;;17.54;100.00;101218.05;107128;1282;59082;-78
2023/08/10 01:42:37;;;;;;;3.00;1.90;;;;;;;17.54;100.00;101217.73;107075;1283;62842;-78
2023/08/10 01:45:04;;;;;;;4.50;2.20;;;;;;;17.54;100.00;101218.50;107147;1283;59074;-78
2023/08/10 01:47:35;;;;;;;7.30;2.70;;;;;;;17.53;100.00;101218.06;107166;1283;59050;-78
2023/08/10 01:50:04;;;;;;;4.90;2.30;;;;;;;17.53;100.00;101226.90;107183;1282;74225;-78
2023/08/10 01:52:55;;;;;;;5.30;2.50;;;;;;;17.51;100.00;101227.85;107114;1283;72236;-78
2023/08/10 01:55:20;;;;;;;2.40;1.70;;;;;;;17.47;100.00;101224.51;107094;1283;61852;-78
2023/08/10 01:57:47;;;;;;;3.40;1.90;;;;;;;17.47;100.00;101226.69;107105;1283;59034;-78
2023/08/10 02:00:13;;;;;;;2.80;2.00;;;;;;;17.46;100.00;101220.60;106807;1283;59120;-79
2023/08/10 02:02:38;;;;;;;2.90;1.90;;;;;;;17.45;100.00;101221.27;106595;1282;59104;-78
2023/08/10 02:08:25;;;;;;;5.90;2.30;;;;;;;17.44;100.00;101219.15;107085;1282;61769;-78
2023/08/10 02:10:51;;;;;;;7.80;2.30;;;;;;;17.43;100.00;101221.17;107127;1282;59054;-78
2023/08/10 02:13:16;;;;;;;3.70;1.80;;;;;;;17.41;100.00;101219.35;107150;1282;59144;-78
2023/08/10 02:15:42;;;;;;;9.40;2.30;;;;;;;17.37;100.00;101217.98;107181;1282;59074;-78
2023/08/10 02:18:12;;;;;;;3.90;2.10;;;;;;;17.35;100.00;101216.30;107132;1282;59079;-79
2023/08/10 02:20:37;;;;;;;3.10;1.90;;;;;;;17.37;100.00;101214.82;107137;1282;59988;-78
2023/08/10 02:23:03;;;;;;;8.60;2.10;;;;;;;17.36;100.00;101215.44;106938;1283;59463;-78
2023/08/10 02:25:29;;;;;;;4.20;2.10;;;;;;;17.39;100.00;101215.95;107169;1282;59166;-78
2023/08/10 02:27:54;;;;;;;5.30;2.10;;;;;;;17.41;100.00;101220.82;107138;1282;59097;-78
2023/08/10 02:30:20;;;;;;;7.10;2.00;;;;;;;17.44;100.00;101221.94;107142;1282;60015;-78
2023/08/10 02:32:46;;;;;;;3.30;2.30;;;;;;;17.47;100.00;101223.36;107088;1282;74405;-78
2023/08/10 02:35:13;;;;;;;8.30;2.50;;;;;;;17.49;100.00;101218.59;107151;1283;59002;-78
2023/08/10 02:37:39;;;;;;;5.30;2.00;;;;;;;17.51;100.00;101224.58;107142;1282;59086;-78
2023/08/10 02:40:12;;;;;;;2.40;2.10;;;;;;;17.52;100.00;101223.59;107180;1282;59044;-78
2023/08/10 02:42:38;;;;;;;6.80;2.50;;;;;;;17.51;100.00;101225.44;107089;1282;61116;-78
2023/08/10 02:45:05;;;;;;;7.70;2.00;;;;;;;17.53;100.00;101224.29;107149;1282;59053;-78
2023/08/10 02:47:31;;;;;;;3.50;2.10;;;;;;;17.55;100.00;101218.73;107140;1282;74110;-78
2023/08/10 02:49:56;;;;;;;3.10;2.10;;;;;;;17.57;100.00;101218.67;107115;1282;59081;-78
2023/08/10 02:52:22;;;;;;;5.50;2.10;;;;;;;17.57;100.00;101218.24;107104;1282;59024;-78
2023/08/10 02:54:47;;;;;;;6.80;2.30;;;;;;;17.58;100.00;101213.59;106694;1283;59135;-78
2023/08/10 02:57:14;;;;;;;5.70;2.50;;;;;;;17.60;100.00;101213.40;107191;1282;59120;-78
2023/08/10 02:59:39;;;;;;;10.60;2.50;;;;;;;17.63;100.00;101209.92;107111;1282;73326;-78
2023/08/10 03:02:05;;;;;;;4.20;2.20;;;;;;;17.66;100.00;101208.20;107121;1282;59006;-78
2023/08/10 03:04:31;;;;;;;2.80;2.00;;;;;;;17.72;100.00;101213.20;107129;1283;59032;-78
2023/08/10 03:06:56;;;;;;;4.40;2.30;;;;;;;17.78;100.00;101213.64;107141;1282;59010;-79
2023/08/10 03:09:22;;;;;;;4.10;2.50;;;;;;;17.86;100.00;101219.52;107198;1282;59054;-78
2023/08/10 03:11:47;;;;;;;3.20;1.90;;;;;;;17.94;100.00;101216.97;106531;1283;62864;-78
2023/08/10 03:14:13;;;;;;;3.10;2.20;;;;;;;18.00;100.00;101214.16;107147;1282;59117;-78
2023/08/10 03:20:00;;;;;;;3.90;2.40;;;;;;;18.14;100.00;101205.66;107153;1282;72685;-78
2023/08/10 03:22:27;;;;;;;4.10;2.00;;;;;;;18.24;100.00;101201.04;106756;1283;59088;-79
2023/08/10 03:24:53;;;;;;;3.80;2.30;;;;;;;18.32;100.00;101194.75;107110;1282;59075;-78
2023/08/10 03:27:19;;;;;;;5.80;2.20;;;;;;;18.38;100.00;101195.70;107114;1282;59062;-78
2023/08/10 03:29:44;;;;;;;3.30;2.40;;;;;;;18.47;100.00;101195.92;107121;1282;59023;-78
2023/08/10 03:32:10;;;;;;;5.00;2.50;;;;;;;18.60;100.00;101194.62;107107;1282;59224;-79
2023/08/10 03:34:35;;;;;;;6.10;2.20;;;;;;;18.69;100.00;101199.06;107132;1282;59334;-78
2023/08/10 03:37:01;;;;;;;3.50;2.50;;;;;;;18.81;100.00;101200.58;107093;1282;61310;-79
2023/08/10 03:39:27;;;;;;;3.20;1.90;;;;;;;19.05;100.00;101195.93;107114;1282;59516;-79
2023/08/10 03:45:14;;;;;;;5.80;2.60;;;;;;;19.55;100.00;101190.56;107122;1282;72383;-78
2023/08/10 03:47:40;;;;;;;2.90;2.30;;;;;;;19.89;100.00;101186.95;107176;1282;59336;-80
2023/08/10 03:50:06;;;;;;;4.60;2.00;;;;;;;20.49;100.00;101183.84;107152;1282;59081;-79
2023/08/10 03:52:32;;;;;;;5.00;2.40;;;;;;;21.24;100.00;101174.41;107140;1283;59023;-79
2023/08/10 03:54:57;;;;;;;8.80;2.30;;;;;;;21.97;100.00;101170.23;107137;1282;59075;-80
2023/08/10 03:57:23;;;;;;;4.90;2.20;;;;;;;22.64;100.00;101165.03;107116;1282;59378;-79
2023/08/10 03:59:49;;;;;;;2.50;2.10;;;;;;;23.25;100.00;101167.36;107090;1282;60086;-80
2023/08/10 04:02:14;;;;;;;5.90;2.10;;;;;;;23.79;100.00;101162.46;106792;1283;59153;-79
2023/08/10 04:04:40;;;;;;;3.70;2.40;;;;;;;24.31;100.00;101155.59;107156;1282;59140;-80
2023/08/10 04:07:07;;;;;;;7.60;2.50;;;;;;;24.63;100.00;101157.12;106902;1283;59134;-80
2023/08/10 04:09:33;;;;;;;5.80;2.30;;;;;;;25.05;100.00;101159.77;107086;1282;59028;-80
2023/08/10 04:11:59;;;;;;;5.00;2.40;;;;;;;25.39;100.00;101158.29;107149;1282;59027;-79
2023/08/10 04:14:25;;;;;;;4.60;2.20;;;;;;;25.73;100.00;101159.40;107103;1282;59133;-81
2023/08/10 04:16:51;;;;;;;4.40;2.40;;;;;;;26.20;100.00;101155.40;106616;1283;59197;-81
2023/08/10 04:19:17;;;;;;;6.80;2.30;;;;;;;26.69;100.00;101155.77;107171;1282;59024;-80
2023/08/10 04:21:44;;;;;;;4.00;2.40;;;;;;;27.08;99.05;101157.70;107102;1282;61057;-80
2023/08/10 04:24:10;;;;;;;4.70;2.20;;;;;;;27.37;96.04;101159.20;107175;1282;75701;-81
2023/08/10 04:26:36;;;;;;;5.90;2.40;;;;;;;27.61;93.62;101159.59;107140;1282;59036;-80
2023/08/10 04:29:03;;;;;;;4.50;2.20;;;;;;;27.80;90.11;101158.44;106704;1283;59130;-80
2023/08/10 04:31:29;;;;;;;8.70;2.70;;;;;;;27.91;88.23;101155.16;107145;1282;58980;-81
2023/08/10 04:33:54;;;;;;;7.20;2.40;;;;;;;28.06;87.10;101148.60;107178;1282;59025;-82
2023/08/10 04:36:20;;;;;;;6.10;2.30;;;;;;;28.31;85.46;101147.64;107126;1282;59067;-80
2023/08/10 04:38:45;;;;;;;5.80;2.40;;;;;;;28.45;81.39;101153.33;106628;1283;59297;-81
2023/08/10 04:41:11;;;;;;;6.20;2.10;;;;;;;28.58;80.76;101156.48;107121;1282;61202;-81
2023/08/10 04:43:36;;;;;;;5.70;2.30;;;;;;;28.77;78.40;101156.89;107157;1282;59267;-82
2023/08/10 04:46:02;;;;;;;5.90;2.50;;;;;;;28.89;77.16;101158.77;107137;1282;58980;-81
2023/08/10 04:48:27;;;;;;;7.00;2.30;;;;;;;29.25;76.47;101160.06;107145;1282;59103;-81
2023/08/10 04:50:53;;;;;;;6.20;2.30;;;;;;;29.65;74.98;101160.11;107175;1282;59044;-81
2023/08/10 04:53:18;;;;;;;5.10;2.40;;;;;;;30.03;72.31;101167.57;107142;1282;60210;-81
2023/08/10 04:55:44;;;;;;;3.70;2.40;;;;;;;30.29;70.13;101171.73;107161;1282;59059;-82
2023/08/10 04:58:10;;;;;;;5.40;2.70;;;;;;;30.69;69.58;101176.34;106706;1285;59152;-82
2023/08/10 05:00:35;;;;;;;4.80;2.00;;;;;;;31.02;66.54;101175.92;106587;1283;59161;-81
2023/08/10 05:03:01;;;;;;;3.70;2.40;;;;;;;31.20;64.69;101172.95;107161;1282;58948;-81
2023/08/10 05:05:26;;;;;;;4.20;2.50;;;;;;;31.24;62.98;101176.48;107143;1282;74252;-81
2023/08/10 05:07:52;;;;;;;5.50;2.70;;;;;;;31.19;63.41;101176.29;107163;1282;59060;-82
2023/08/10 05:10:18;;;;;;;3.80;2.40;;;;;;;31.49;60.97;101174.67;107147;1282;59120;-82
2023/08/10 05:12:43;;;;;;;6.80;2.30;;;;;;;31.67;60.59;101166.41;106920;1283;59157;-83
2023/08/10 05:15:10;;;;;;;3.70;2.60;;;;;;;31.83;58.86;101168.80;107152;1282;59025;-83
2023/08/10 05:17:37;;;;;;;7.00;2.30;;;;;;;31.68;57.50;101166.27;107185;1282;59701;-81
2023/08/10 05:20:10;;;;;;;7.70;2.90;;;;;;;31.74;57.97;101166.21;107134;1282;73453;-83
2023/08/10 05:22:37;;;;;;;4.60;2.30;;;;;;;31.96;56.50;101164.41;107113;1282;60372;-81
2023/08/10 05:25:04;;;;;;;5.00;2.30;;;;;;;31.73;55.52;101164.05;107125;1282;61096;-81
2023/08/10 05:27:29;;;;;;;4.10;2.70;;;;;;;31.54;57.28;101161.81;106684;1286;75274;-82
2023/08/10 05:29:55;;;;;;;4.60;2.70;;;;;;;31.99;55.65;101153.75;107179;1282;59120;-81
2023/08/10 05:32:20;;;;;;;8.90;2.90;;;;;;;32.34;54.42;101151.69;106696;1283;59201;-80
2023/08/10 05:34:46;;;;;;;7.00;2.80;;;;;;;32.44;53.60;101148.92;107163;1282;59179;-82
2023/08/10 05:37:11;;;;;;;8.90;3.20;;;;;;;32.47;53.21;101145.67;106774;1283;59178;-81
2023/08/10 05:39:38;;;;;;;6.10;3.10;;;;;;;32.74;54.24;101147.45;107181;1282;59028;-81
2023/08/10 05:42:04;;;;;;;5.80;2.90;;;;;;;33.14;51.81;101142.02;106671;1283;59130;-81
2023/08/10 05:44:29;;;;;;;5.50;2.60;;;;;;;32.85;52.29;101138.99;107154;1282;58982;-81
2023/08/10 05:46:55;;;;;;;3.80;3.10;;;;;;;33.21;52.27;101133.79;107105;1282;59278;-82
2023/08/10 05:49:20;;;;;;;4.30;2.70;;;;;;;33.44;50.70;101132.70;106789;1283;59197;-81
2023/08/10 05:51:46;;;;;;;4.50;2.50;;;;;;;33.70;50.63;101129.35;107155;1282;59726;-82
2023/08/10 05:54:11;;;;;;;6.40;2.80;;;;;;;33.75;49.51;101126.46;107096;1282;61113;-82
2023/08/10 05:56:37;;;;;;;6.00;2.70;;;;;;;33.80;48.69;101123.16;107126;1282;59138;-83
2023/08/10 05:59:03;;;;;;;4.60;2.70;;;;;;;33.63;48.79;101119.47;107163;1282;59099;-81
2023/08/10 06:01:29;;;;;;;4.70;3.30;;;;;;;34.12;49.81;101116.83;107136;1282;59450;-81
2023/08/10 06:03:54;;;;;;;8.60;3.00;;;;;;;34.67;48.20;101104.63;106881;1283;59270;-83
2023/08/10 06:06:20;;;;;;;7.10;3.60;;;;;;;34.78;47.02;101104.95;107180;1282;58971;-82
2023/08/10 06:08:48;;;;;;;11.40;3.40;;;;;;;34.68;45.99;101095.50;107135;1282;75475;-82
2023/08/10 06:11:13;;;;;;;4.20;3.40;;;;;;;34.40;46.72;101098.19;107160;1282;74267;-83
2023/08/10 06:13:41;;;;;;;10.50;4.10;;;;;;;34.58;45.87;101101.83;107158;1282;59041;-82
2023/08/10 06:16:07;;;;;;;7.00;3.50;;;;;;;34.48;47.03;101098.21;107086;1282;60905;-81
2023/08/10 06:18:34;;;;;;;4.30;3.40;;;;;;;34.85;46.82;101094.86;106706;1283;59563;-83
2023/08/10 06:21:01;;;;;;;6.60;4.00;;;;;;;35.31;46.44;101096.23;107183;1282;59152;-82
2023/08/10 06:23:28;;;;;;;5.90;3.60;;;;;;;35.50;44.19;101093.86;107146;1282;74592;-81
2023/08/10 06:25:54;;;;;;;4.80;3.40;;;;;;;35.10;44.18;101095.50;106551;1283;72566;-82
2023/08/10 06:28:20;;;;;;;5.80;3.40;;;;;;;34.95;44.47;101098.61;107118;1282;59035;-81
2023/08/10 06:30:46;;;;;;;4.50;3.30;;;;;;;34.81;44.74;101094.73;107144;1282;59017;-81
2023/08/10 06:33:11;;;;;;;7.20;3.70;;;;;;;34.95;44.98;101104.54;107133;1282;59083;-82
2023/08/10 06:35:39;;;;;;;9.50;3.10;;;;;;;35.31;44.74;101107.54;106943;1283;59122;-81
2023/08/10 06:38:04;;;;;;;6.50;3.50;;;;;;;35.52;44.60;101110.59;107107;1282;59090;-82
2023/08/10 06:40:31;;;;;;;8.30;3.50;;;;;;;35.71;43.37;101109.08;107168;1282;59004;-81
2023/08/10 06:42:58;;;;;;;8.10;3.20;;;;;;;35.39;42.89;101110.48;107081;1282;59047;-82
2023/08/10 06:45:23;;;;;;;9.10;3.40;;;;;;;35.09;43.11;101100.98;107164;1282;59462;-82
2023/08/10 06:47:49;;;;;;;4.00;3.20;;;;;;;35.17;43.74;101095.36;107123;1282;59475;-82
2023/08/10 06:50:16;;;;;;;7.60;3.90;;;;;;;35.67;43.94;101091.73;107152;1282;59262;-80
2023/08/10 06:52:41;;;;;;;8.10;3.30;;;;;;;35.66;42.64;101094.95;106412;1283;59165;-82
2023/08/10 06:55:07;;;;;;;4.50;3.20;;;;;;;35.35;43.08;101096.77;107124;1282;75664;-82
2023/08/10 06:57:35;;;;;;;10.40;4.30;;;;;;;35.31;43.23;101097.77;107115;1282;59056;-81
2023/08/10 07:00:07;;;;;;;5.30;3.20;;;;;;;35.04;42.73;101098.12;107127;1282;73299;-81
2023/08/10 07:02:35;;;;;;;8.60;3.30;;;;;;;34.77;44.25;101097.66;107085;1282;60994;-80
2023/08/10 07:05:01;;;;;;;5.60;3.10;;;;;;;35.03;43.61;101096.78;107113;1282;59978;-81
2023/08/10 07:07:26;;;;;;;7.70;3.20;;;;;;;34.99;44.05;101094.49;107144;1282;59011;-82
2023/08/10 07:09:52;;;;;;;6.50;3.30;;;;;;;35.25;43.45;101096.64;107173;1282;59219;-83
2023/08/10 07:12:17;;;;;;;6.00;3.10;;;;;;;35.02;43.33;101103.11;107155;1282;59102;-82
2023/08/10 07:14:43;;;;;;;7.70;3.50;;;;;;;35.13;44.08;101105.80;107109;1282;59005;-81
2023/08/10 07:17:09;;;;;;;6.50;3.30;;;;;;;35.18;43.24;101105.45;107190;1282;59023;-82
2023/08/10 07:19:35;;;;;;;5.10;3.20;;;;;;;35.32;44.23;101101.84;107168;1282;59100;-80
2023/08/10 07:22:01;;;;;;;4.70;3.30;;;;;;;35.83;43.22;101094.49;107136;1282;59089;-82
2023/08/10 07:24:27;;;;;;;5.90;3.10;;;;;;;35.63;42.57;101098.77;107161;1282;59009;-83
2023/08/10 07:26:56;;;;;;;5.60;3.50;;;;;;;35.35;42.90;101101.80;107135;1282;59163;-81
2023/08/10 07:29:23;;;;;;;7.60;3.10;;;;;;;35.70;43.06;101099.46;107135;1282;75510;-82
2023/08/10 07:31:48;;;;;;;7.00;3.60;;;;;;;35.74;42.48;101099.90;107111;1282;59115;-82
2023/08/10 07:34:14;;;;;;;6.50;3.00;;;;;;;35.95;42.85;101102.98;107136;1282;59947;-82
2023/08/10 07:36:40;;;;;;;6.90;3.30;;;;;;;36.23;42.82;101101.78;107148;1282;59083;-81
2023/08/10 07:39:05;;;;;;;5.30;3.60;;;;;;;36.09;42.02;101091.97;107112;1282;59053;-81
2023/08/10 07:41:31;;;;;;;4.40;3.40;;;;;;;35.91;42.81;101086.99;107162;1282;59030;-80
2023/08/10 07:43:56;;;;;;;7.00;3.00;;;;;;;36.30;42.81;101089.33;107140;1282;73443;-82
2023/08/10 07:46:22;;;;;;;8.10;3.30;;;;;;;36.71;41.83;101088.41;107119;1282;59087;-81
2023/08/10 07:48:47;;;;;;;6.60;3.00;;;;;;;36.69;41.65;101092.72;107156;1282;59103;-82
2023/08/10 07:51:13;;;;;;;7.60;3.20;;;;;;;36.24;41.15;101095.27;107142;1282;59213;-82
2023/08/10 07:53:39;;;;;;;8.60;3.20;;;;;;;35.45;41.76;101086.13;107163;1282;59078;-81
2023/08/10 07:56:04;;;;;;;8.20;3.00;;;;;;;34.68;43.32;101086.15;107127;1282;60123;-80
2023/08/10 07:58:30;;;;;;;10.50;3.50;;;;;;;34.55;44.15;101088.32;107172;1282;59080;-81
2023/08/10 08:00:55;;;;;;;7.20;3.20;;;;;;;34.56;44.47;101089.92;107145;1282;59114;-80
2023/08/10 08:03:22;;;;;;;11.40;3.40;;;;;;;34.57;44.22;101089.52;107143;1282;59355;-80
2023/08/10 08:05:47;;;;;;;3.90;3.00;;;;;;;34.94;45.10;101088.63;106702;1283;58994;-81
2023/08/10 08:08:13;;;;;;;5.10;3.20;;;;;;;35.60;43.91;101080.54;107204;1282;59214;-81
2023/08/10 08:10:38;;;;;;;6.10;3.40;;;;;;;35.25;44.11;101080.77;107129;1282;59310;-81
2023/08/10 08:13:06;;;;;;;6.90;3.20;;;;;;;35.25;44.64;101070.30;107183;1282;59024;-81
2023/08/10 08:15:33;;;;;;;8.80;3.10;;;;;;;34.79;44.37;101061.79;107156;1282;59077;-81
2023/08/10 08:18:55;;;;;;;8.60;3.40;;;;;;;34.39;45.58;101061.25;107089;1282;60127;-81
2023/08/10 08:21:26;;;;;;;4.00;2.80;;;;;;;33.53;46.35;101060.39;106319;1290;60344;-79
2023/08/10 08:23:53;;;;;;;7.30;3.30;;;;;;;32.70;47.98;101066.73;106292;1290;74414;-81
2023/08/10 08:26:20;;;;;;;10.70;3.40;;;;;;;32.47;49.84;101069.52;106302;1291;74347;-80
2023/08/10 08:28:47;;;;;;;5.50;2.90;;;;;;;32.54;49.62;101066.43;106251;1291;72439;-80
2023/08/10 08:31:13;;;;;;;7.70;3.10;;;;;;;32.17;50.72;101059.45;106257;1290;60226;-81
2023/08/10 08:33:42;;;;;;;7.20;3.20;;;;;;;32.07;50.92;101061.60;106266;1290;59075;-81
2023/08/10 08:36:09;;;;;;;7.00;3.10;;;;;;;32.06;52.36;101062.14;106213;1290;74677;-80
2023/08/10 08:38:34;;;;;;;7.50;3.20;;;;;;;32.18;52.45;101063.44;106291;1290;59110;-80
2023/08/10 08:41:07;;;;;;;11.30;3.30;;;;;;;31.94;52.92;101060.84;106298;1291;59076;-80
2023/08/10 08:43:34;;;;;;;10.80;3.10;;;;;;;31.80;52.91;101051.48;106098;1293;59455;-80
2023/08/10 08:46:00;;;;;;;5.70;3.00;;;;;;;31.57;54.71;101047.58;106302;1290;60065;-80
2023/08/10 08:48:27;;;;;;;9.20;3.30;;;;;;;31.37;54.87;101042.71;106329;1290;59128;-80
2023/08/10 08:50:54;;;;;;;10.40;3.40;;;;;;;30.99;56.25;101038.61;106287;1290;74234;-80
2023/08/10 08:53:20;;;;;;;9.90;2.90;;;;;;;30.71;56.74;101030.61;107031;1282;73304;-80
2023/08/10 08:55:46;;;;;;;25.00;3.90;;;;;;;30.82;59.37;101038.73;106959;1283;58961;-81
2023/08/10 08:58:15;;;;;;;5.40;3.10;;;;;;;31.85;57.91;101032.13;106771;1284;59450;-80
2023/08/10 09:00:46;;;;;;;8.50;3.50;;;;;;;32.78;56.11;101023.50;106621;1283;73230;-79
2023/08/10 09:03:12;;;;;;;13.50;3.40;;;;;;;32.64;55.11;101022.48;107148;1282;74424;-80
2023/08/10 09:05:37;;;;;;;7.20;3.30;;;;;;;32.50;55.63;101013.33;107162;1282;59202;-79
2023/08/10 09:08:03;;;;;;;6.00;3.00;;;;;;;32.64;55.40;101001.27;106966;1283;59925;-79
2023/08/10 09:10:29;;;;;;;5.70;3.20;;;;;;;32.45;55.77;101002.88;106801;1283;59176;-81
2023/08/10 09:12:54;;;;;;;8.20;3.80;;;;;;;32.73;56.13;101014.48;107171;1282;59345;-81
2023/08/10 09:15:21;;;;;;;7.30;3.60;;;;;;;33.10;54.42;101013.95;107175;1282;59145;-81
2023/08/10 09:17:52;;;;;;;11.10;3.50;;;;;;;33.21;53.80;101013.50;107134;1282;60941;-81
2023/08/10 09:20:22;;;;;;;5.60;2.90;;;;;;;33.37;53.74;101013.19;107142;1282;61190;-79
2023/08/10 09:22:50;;;;;;;6.60;3.30;;;;;;;33.46;52.92;101008.52;107179;1282;75578;-80
2023/08/10 09:25:16;;;;;;;6.00;3.10;;;;;;;33.75;52.92;101008.93;107185;1282;74329;-80
2023/08/10 09:27:42;;;;;;;12.80;3.70;;;;;;;34.12;52.96;100995.90;107140;1282;59429;-81
2023/08/10 09:30:08;;;;;;;6.60;3.30;;;;;;;34.36;51.61;100993.30;106613;1283;59195;-81
2023/08/10 09:32:35;;;;;;;7.70;3.50;;;;;;;34.40;51.35;100995.27;107140;1282;58918;-79
2023/08/10 09:35:01;;;;;;;6.80;3.30;;;;;;;34.22;51.49;100995.27;107176;1282;59379;-81
2023/08/10 09:37:27;;;;;;;8.00;3.10;;;;;;;33.86;51.34;100991.45;107122;1282;59055;-80
2023/08/10 09:40:15;;;;;;;9.50;3.80;;;;;;;33.45;51.78;100992.40;106746;1283;59304;-80
2023/08/10 09:42:41;;;;;;;10.50;3.60;;;;;;;33.42;53.48;100992.88;107112;1282;60319;-80
2023/08/10 09:45:09;;;;;;;10.00;3.40;;;;;;;33.37;53.13;100987.65;106750;1285;59098;-78
2023/08/10 09:47:41;;;;;;;8.10;3.70;;;;;;;32.95;54.30;100986.04;107122;1282;75563;-79
2023/08/10 09:50:12;;;;;;;14.30;3.70;;;;;;;32.84;55.31;100972.12;107132;1282;73246;-80
2023/08/10 09:52:39;;;;;;;7.10;3.10;;;;;;;32.66;55.07;100957.34;107105;1282;73439;-80
2023/08/10 09:55:07;;;;;;;7.90;3.40;;;;;;;32.47;56.27;100959.84;106817;1283;59019;-80
2023/08/10 09:57:33;;;;;;;8.30;4.00;;;;;;;32.54;56.60;100958.14;106952;1283;59725;-80
2023/08/10 09:59:59;;;;;;;9.00;3.50;;;;;;;32.40;56.94;100961.81;107140;1282;59048;-79
2023/08/10 10:02:25;;;;;;;10.20;3.40;;;;;;;32.13;56.95;100968.05;106675;1282;59535;-78
2023/08/10 10:04:52;;;;;;;8.00;3.50;;;;;;;31.73;58.52;100969.51;107153;1282;59232;-82
2023/08/10 10:07:27;;;;;;;8.60;4.00;;;;;;;31.65;59.09;100967.11;107184;1282;59014;-79
2023/08/10 10:09:58;;;;;;;10.30;3.80;;;;;;;31.55;60.63;100968.75;107152;1282;60434;-80
2023/08/10 10:12:24;;;;;;;7.40;3.90;;;;;;;31.64;60.61;100964.95;107138;1282;75343;-79
2023/08/10 10:14:51;;;;;;;7.80;3.50;;;;;;;31.68;62.24;100965.02;107176;1282;71615;-80
2023/08/10 10:17:19;;;;;;;9.80;3.10;;;;;;;31.91;61.41;100965.31;107159;1282;73344;-83
2023/08/10 10:19:48;;;;;;;9.70;3.70;;;;;;;31.95;59.90;100963.81;107124;1282;60224;-78
2023/08/10 10:22:16;;;;;;;7.90;4.00;;;;;;;31.83;60.86;100959.65;107138;1283;60898;-79
2023/08/10 10:24:42;;;;;;;9.10;3.30;;;;;;;31.75;59.96;100958.67;107137;1282;75277;-80
2023/08/10 10:27:11;;;;;;;6.30;3.70;;;;;;;31.71;60.36;100955.73;107114;1282;59059;-80
2023/08/10 10:29:52;;;;;;;9.60;3.70;;;;;;;31.86;60.72;100955.58;106369;1283;73001;-80
2023/08/10 10:32:22;;;;;;;9.10;3.50;;;;;;;31.74;60.43;100950.00;107120;1282;59980;-78
2023/08/10 10:34:50;;;;;;;9.00;3.70;;;;;;;31.62;61.12;100944.64;106675;1283;60301;-79
2023/08/10 10:37:16;;;;;;;6.00;3.40;;;;;;;31.67;62.28;100939.95;107134;1282;74317;-78
2023/08/10 10:39:50;;;;;;;6.00;3.40;;;;;;;31.66;61.40;100934.38;107153;1282;73263;-80
2023/08/10 10:42:17;;;;;;;9.70;3.90;;;;;;;31.65;62.86;100935.25;107094;1282;73450;-79
2023/08/10 10:45:06;;;;;;;11.80;4.00;;;;;;;31.78;61.91;100931.37;107077;1282;61131;-80
2023/08/10 10:47:47;;;;;;;4.90;3.00;;;;;;;31.98;62.08;100935.60;107127;1282;60948;-78
2023/08/10 10:50:19;;;;;;;8.00;3.60;;;;;;;32.49;62.23;100925.86;107145;1282;75495;-79
2023/08/10 10:53:06;;;;;;;11.00;3.50;;;;;;;32.80;59.29;100918.98;107156;1282;73414;-78
2023/08/10 10:55:35;;;;;;;13.40;3.70;;;;;;;32.53;59.79;100921.88;107081;1282;72743;-79
2023/08/10 10:58:04;;;;;;;5.40;3.60;;;;;;;32.47;59.18;100916.45;106728;1283;59033;-79
2023/08/10 11:00:32;;;;;;;13.30;3.30;;;;;;;32.26;59.10;100909.06;107183;1282;60064;-79
2023/08/10 11:02:57;;;;;;;7.50;3.60;;;;;;;32.45;61.06;100912.15;107160;1282;75507;-81
2023/08/10 11:05:23;;;;;;;6.20;3.60;;;;;;;32.92;60.85;100911.70;107118;1282;59039;-80
2023/08/10 11:07:52;;;;;;;8.80;3.30;;;;;;;33.31;59.95;100909.42;107100;1282;59069;-80
2023/08/10 11:10:19;;;;;;;14.60;3.90;;;;;;;33.28;57.33;100905.54;106748;1283;61099;-79
2023/08/10 11:12:48;;;;;;;7.10;3.30;;;;;;;32.77;58.20;100907.67;107116;1282;60939;-78
2023/08/10 11:15:15;;;;;;;5.30;3.60;;;;;;;32.51;59.22;100915.34;106891;1283;75427;-79
2023/08/10 11:17:42;;;;;;;7.40;3.90;;;;;;;32.39;60.19;100912.39;107118;1282;74485;-79
2023/08/10 11:20:26;;;;;;;8.80;3.90;;;;;;;32.48;60.47;100907.77;107107;1282;72452;-79
2023/08/10 11:22:53;;;;;;;9.20;4.00;;;;;;;32.71;60.87;100897.17;107101;1282;60952;-78
2023/08/10 11:25:22;;;;;;;11.60;4.50;;;;;;;32.66;59.86;100896.48;106865;1282;396011;-78
2023/08/10 11:27:49;;;;;;;14.40;4.60;;;;;;;32.48;59.96;100902.11;106758;1285;74313;-80
2023/08/10 11:30:17;;;;;;;7.00;3.80;;;;;;;32.53;60.84;100902.73;107145;1282;74620;-79
2023/08/10 11:32:49;;;;;;;15.10;3.50;;;;;;;32.60;60.54;100908.77;107072;1282;72406;-78
2023/08/10 11:35:18;;;;;;;14.10;4.30;;;;;;;32.51;59.69;100914.30;106567;1283;60574;-78
2023/08/10 11:37:43;;;;;;;7.60;3.70;;;;;;;32.54;60.05;100918.45;106734;1283;61100;-78
2023/08/10 11:40:15;;;;;;;12.50;4.50;;;;;;;32.49;60.62;100919.25;107141;1282;59026;-78
2023/08/10 11:42:43;;;;;;;13.60;4.10;;;;;;;32.46;61.21;100918.54;107122;1282;74390;-79